• Join FlightAware (Why Join?)
  • Login
  • US Flag 
04:52AM EST


 

Airport Tracker/Info


-or-


 

Live Flight TrackerFlight Track Log ✈ EJA951 ✈ 08-Nov-2013 ✈ KLAS - KSNA

Flight Track Log - Related Links

Times and Time Zones

All times are in EST time to prevent confusion due to time zone crossing. See the EJA951 flight status page for this flight to view local times or setup timezone preferences in your user account.

Time Position Orientation Groundspeed Altitude Reporting Facility
EST Latitude Longitude Course Direction KTS MPH feet Rate Location/Type
07:11PM 36.0219 -115.1967 205° Southwest 185 213 5,700  Level Los Angeles Center
07:12PM 36.0133 -115.2017 205° Southwest 188 216 6,400 3,000 Climbing Los Angeles Center
07:12PM 35.9750 -115.2200 201° Southwest 223 257 8,500 3,660 Climbing Los Angeles Center
07:13PM 35.9369 -115.2267 188° South 230 265 10,200 3,000 Climbing Los Angeles Center
07:13PM 35.8833 -115.2447 195° South 322 371 11,900 2,280 Climbing Los Angeles Center
07:14PM 35.8486 -115.2503 187° South 287 330 12,600 1,620 Climbing Los Angeles Center
07:15PM 35.7467 -115.2764 192° South 345 397 14,300 1,620 Climbing Los Angeles Center
07:16PM 35.6528 -115.3258 203° Southwest 371 427 16,000 1,800 Climbing Los Angeles Center
07:17PM 35.5844 -115.4186 228° Southwest 362 417 18,100 1,680 Climbing Los Angeles Center
07:18PM 35.5128 -115.5150 228° Southwest 373 429 19,500 900 Climbing Los Angeles Center
07:19PM 35.4331 -115.6239 228° Southwest 403 464 20,000 240 Climbing Los Angeles Center
07:20PM 35.3494 -115.7356 227° Southwest 434 499 20,000  Level Los Angeles Center
07:21PM 35.2478 -115.8708 227° Southwest 448 516 20,000  Level Los Angeles Center
07:22PM 35.1622 -115.9831 227° Southwest 450 518 20,000  Level Los Angeles Center
07:23PM 35.0761 -116.0964 227° Southwest 453 521 20,000  Level Los Angeles Center
07:24PM 34.9892 -116.2092 227° Southwest 455 524 20,000  Level Los Angeles Center
07:25PM 34.9050 -116.3222 228° Southwest 452 520 20,000  Level Los Angeles Center
07:26PM 34.8181 -116.4344 227° Southwest 454 522 20,000  Level Los Angeles Center
07:27PM 34.7294 -116.5453 226° Southwest 456 525 20,000 -900 Level Los Angeles Center
07:28PM 34.6233 -116.6758 225° Southwest 451 519 18,200 -1,620 Descending Los Angeles Center
07:29PM 34.5367 -116.7819 225° Southwest 443 510 16,700 -1,080 Descending Los Angeles Center
07:30PM 34.4542 -116.8806 225° Southwest 420 483 16,000 -600 Descending Los Angeles Center
07:32PM 34.3556 -117.0019 225° Southwest 420 483 15,400 -1,380 Descending Los Angeles Center
07:33PM 34.2703 -117.0936 222° Southwest 419 482 13,000 -1,200 Descending Los Angeles Center
07:34PM 34.1628 -117.1269 194° South 410 472 13,000 -840 Level Los Angeles Center
07:34PM 34.0667 -117.1500 191° South 380 437 11,600 -1,800 Descending Southern California TRACON
07:35PM 33.9833 -117.1833 198° South 330 380 10,000 -1,560 Descending Southern California TRACON
07:36PM 33.9333 -117.2667 234° Southwest 286 329 8,500 -1,020 Descending Southern California TRACON
07:37PM 33.9000 -117.3333 239° Southwest 267 307 8,000 -300 Descending Southern California TRACON
07:38PM 33.8667 -117.4167 244° Southwest 244 281 8,000  Level Southern California TRACON
07:39PM 33.8333 -117.4667 231° Southwest 244 281 8,000 -120 Level Southern California TRACON
07:40PM 33.8192 -117.5094 248° West 238 274 7,900 -900 Descending Los Angeles Center
07:41PM 33.7906 -117.5694 240° Southwest 218 251 6,600 -660 Descending Los Angeles Center
07:42PM 33.7786 -117.6350 258° West 206 237 6,600 -300 Level Los Angeles Center
07:43PM 33.7725 -117.7031 264° West 206 237 6,000 -900 Descending Los Angeles Center
07:44PM 33.7764 -117.7683 274° West 201 231 4,800 -1,020 Descending Los Angeles Center
07:45PM 33.7942 -117.8408 286° West 190 219 4,000 -420 Descending Los Angeles Center
07:46PM 33.8322 -117.8342 North 183 211 4,000  Level Los Angeles Center
07:47PM 33.8125 -117.7844 116° Southeast 198 228 4,100 -720 Climbing Los Angeles Center
07:48PM 33.7656 -117.8117 206° Southwest 188 216 2,600 -1,500 Descending Los Angeles Center
07:49PM 33.7264 -117.8361 207° Southwest 174 200 1,000 -1,140 Descending Los Angeles Center
07:50PM 33.6928 -117.8575 208° Southwest 155 178 300 -480 Descending Los Angeles Center
07:51PM 33.6539 -117.8828 208° Southwest 149 171 100 -240 Descending Los Angeles Center
07:53PM 33.6667 -117.8667 132° Southeast  Level FlightAware Approximate
08:00PM 33.6757 -117.8682 132° Southeast  Level Estimated